Aviation Digital Data Service (ADDS)

Output produced by METARs form (1729 UTC 16 June 2019)
found at http://www.aviationweather.gov/metar/data/
 
KVCT 161122Z 1612/1712 16006KT P6SM VCSH SCT025 BKN035 
     FM161600 17015G22KT P6SM VCTS BKN030CB 
     FM170000 14010KT P6SM SCT035 
     FM170800 13008KT P6SM VCSH SCT035 
     PROB30 1709/1712 5SM TSRA OVC030CB
       
KVEL 161720Z 1618/1718 VRB04KT P6SM BKN070 OVC090 
     FM162100 30010G18KT P6SM SCT100 BKN200 
     FM170300 30006KT P6SM BKN100 OVC120 
     FM171000 35006KT P6SM SCT090 BKN100
       
KVGT 161720Z 1618/1718 VRB05KT P6SM FEW150 BKN250 
     FM162000 20009G16KT P6SM VCSH SCT150 BKN250 
     FM162300 22012G20KT P6SM FEW120 SCT250 
     FM170300 18010KT P6SM FEW150 
     FM170500 04006KT P6SM FEW150
       
KVIS 161720Z 1618/1718 30005KT P6SM SKC 
     FM171200 VRB03KT P6SM SKC
       
KVLD 161720Z 1618/1718 VRB04KT P6SM FEW035 
     FM162100 12004KT P6SM VCTS SCT040CB 
     FM170100 13005KT P6SM BKN250 
     FM171000 00000KT 6SM BR BKN015 
     FM171300 17004KT P6SM SCT040
       
KVNY 161512Z 1615/1712 VRB05KT 5SM BR OVC009 
     FM161700 VRB03KT P6SM OVC012 
     FM162000 13008KT P6SM SKC 
     FM170500 VRB03KT P6SM SKC 
     FM170900 VRB03KT P6SM OVC009 
     FM171100 VRB03KT P6SM OVC011
       
TAF KVPS 161700Z 1617/1723 16012KT 9999 SCT030 SCT250 QNH2995INS WND 13008KT AFT
1623 
     BECMG 1701/1702 10005KT 9999 FEW020 FEW250 QNH2995INS WND 04005KT AFT 1707 
     BECMG 1713/1714 13007KT 9999 FEW020 FEW250 QNH2994INS WND 16012KT AFT 1716
TX31/1619Z TN22/1711Z
       
KVQQ 161720Z 1618/1718 VRB15G25KT 3SM +TSRA BR SCT020 BKN030CB OVC070 
     FM162000 13006KT P6SM VCSH SCT030 BKN090 BKN150 
     FM170200 12005KT P6SM FEW020 SCT250 
     FM171500 16007KT P6SM SCT025
       
KVRB 161720Z 1618/1718 13009KT P6SM VCSH SCT025 BKN100 
     FM162100 12009KT P6SM SCT035 SCT200 
     FM170000 10004KT P6SM FEW035 SCT200 
     FM171000 09005KT P6SM VCSH FEW035 BKN100
       
KVTN 161725Z 1618/1718 35010KT P6SM VCSH SCT070 BKN100 
     TEMPO 1618/1620 6SM -SHRA BKN060 
     FM162100 01008KT P6SM VCTS BKN070CB 
     FM170300 VRB06KT 6SM -SHRA VCTS BKN060CB 
     FM171000 VRB06KT P6SM VCSH BKN030 
     FM171300 VRB05KT P6SM VCSH BKN020